Time;durP1;ratioP1;P1;durP2;ratioP2;P2;SDS_P1;SDS_P2;PMS_P1;PMS_P2;Temp;Humidity;BMP_temperature;BMP_pressure;BME280_temperature;BME280_humidity;BME280_pressure;Samples;Min_cycle;Max_cycle;Signal;HPM_P1;HPM_P2
2022/04/28 00:02:02;;;;;;;;;6.00;1.00;;;;;;;;5140542;27;8852;-73
2022/04/28 00:04:28;;;;;;;;;2.00;2.00;;;;;;;;5141568;27;8777;-73
2022/04/28 00:06:53;;;;;;;;;2.25;2.00;;;;;;;;5141415;27;8780;-73
2022/04/28 00:09:18;;;;;;;;;2.00;2.00;;;;;;;;5141370;27;8784;-73
2022/04/28 00:11:44;;;;;;;;;5.00;2.75;;;;;;;;5141033;27;8760;-73
2022/04/28 00:14:09;;;;;;;;;2.00;2.00;;;;;;;;5141371;27;11622;-73
2022/04/28 00:16:35;;;;;;;;;2.25;2.25;;;;;;;;5140538;27;11578;-73
2022/04/28 00:19:01;;;;;;;;;6.00;2.75;;;;;;;;5140609;27;9595;-73
2022/04/28 00:21:26;;;;;;;;;3.00;3.00;;;;;;;;5140703;27;10281;-73
2022/04/28 00:23:51;;;;;;;;;3.00;3.00;;;;;;;;5140369;27;11305;-73
2022/04/28 00:26:17;;;;;;;;;2.00;2.00;;;;;;;;5138924;27;8872;-73
2022/04/28 00:28:42;;;;;;;;;2.75;2.00;;;;;;;;5141152;27;9497;-73
2022/04/28 00:31:07;;;;;;;;;3.00;3.00;;;;;;;;5141224;27;8776;-73
2022/04/28 00:33:33;;;;;;;;;3.50;3.00;;;;;;;;5140562;27;11685;-73
2022/04/28 00:35:58;;;;;;;;;1.00;1.00;;;;;;;;5140897;27;8779;-72
2022/04/28 00:38:23;;;;;;;;;2.75;2.00;;;;;;;;5140118;27;10255;-72
2022/04/28 00:40:48;;;;;;;;;5.00;2.00;;;;;;;;5140688;27;10462;-73
2022/04/28 00:43:19;;;;;;;;;2.25;2.00;;;;;;;;5140248;27;8795;-73
2022/04/28 00:45:48;;;;;;;;;3.50;3.50;;;;;;;;5140333;27;10083;-72
2022/04/28 00:50:59;;;;;;;;;4.75;3.50;;;;;;;;5140720;27;11395;-72
2022/04/28 00:53:26;;;;;;;;;3.50;2.00;;;;;;;;5140072;27;11450;-72
2022/04/28 00:55:51;;;;;;;;;2.50;2.25;;;;;;;;5140538;27;11411;-72
2022/04/28 00:58:17;;;;;;;;;2.50;2.50;;;;;;;;5138531;27;11697;-72
2022/04/28 01:00:42;;;;;;;;;5.00;4.50;;;;;;;;5140851;27;8787;-73
2022/04/28 01:06:10;;;;;;;;;3.50;3.50;;;;;;;;5139642;27;10231;-73
2022/04/28 01:08:35;;;;;;;;;5.75;4.00;;;;;;;;5139822;27;11585;-73
2022/04/28 01:11:01;;;;;;;;;5.25;3.00;;;;;;;;5139354;27;11424;-73
2022/04/28 01:13:26;;;;;;;;;7.25;4.50;;;;;;;;5138748;27;9169;-73
2022/04/28 01:15:53;;;;;;;;;5.00;2.00;;;;;;;;5140500;27;11667;-72
2022/04/28 01:18:19;;;;;;;;;4.00;3.50;;;;;;;;5139580;27;12490;-72
2022/04/28 01:20:44;;;;;;;;;4.50;3.00;;;;;;;;5139642;27;12104;-72
2022/04/28 01:23:10;;;;;;;;;6.00;3.00;;;;;;;;5139478;27;9495;-72
2022/04/28 01:25:35;;;;;;;;;2.75;2.00;;;;;;;;5139282;27;8813;-72
2022/04/28 01:28:01;;;;;;;;;2.50;2.50;;;;;;;;5138995;27;11021;-72
2022/04/28 01:30:26;;;;;;;;;2.25;2.25;;;;;;;;5140182;27;9101;-73
2022/04/28 01:32:52;;;;;;;;;3.50;2.00;;;;;;;;5139754;27;10146;-72
2022/04/28 01:35:17;;;;;;;;;2.00;2.00;;;;;;;;5137880;27;13617;-73
2022/04/28 01:37:43;;;;;;;;;0.00;0.00;;;;;;;;5139800;27;9225;-72
2022/04/28 01:40:11;;;;;;;;;1.75;0.50;;;;;;;;5139878;27;8791;-72
2022/04/28 01:42:47;;;;;;;;;2.50;2.50;;;;;;;;5138179;27;11785;-72
2022/04/28 01:45:13;;;;;;;;;2.50;2.00;;;;;;;;5139715;27;11415;-72
2022/04/28 01:47:41;;;;;;;;;2.00;2.00;;;;;;;;5139664;27;11445;-72
2022/04/28 01:50:08;;;;;;;;;2.50;2.00;;;;;;;;5142054;27;8756;-72
2022/04/28 01:55:18;;;;;;;;;2.75;2.00;;;;;;;;5142999;27;11419;-72
2022/04/28 01:57:43;;;;;;;;;2.00;2.00;;;;;;;;5143026;27;11435;-74
2022/04/28 02:00:09;;;;;;;;;4.00;2.00;;;;;;;;5143031;27;8796;-72
2022/04/28 02:02:35;;;;;;;;;3.00;2.00;;;;;;;;5141952;27;8812;-73
2022/04/28 02:05:01;;;;;;;;;2.00;2.00;;;;;;;;5142593;27;11467;-73
2022/04/28 02:07:27;;;;;;;;;2.00;2.00;;;;;;;;5141195;27;8788;-73
2022/04/28 02:09:53;;;;;;;;;2.00;2.00;;;;;;;;5142707;27;11645;-72
2022/04/28 02:12:18;;;;;;;;;1.25;1.25;;;;;;;;5142884;27;8820;-74
2022/04/28 02:14:43;;;;;;;;;2.00;2.00;;;;;;;;5141020;27;11927;-72
2022/04/28 02:17:09;;;;;;;;;2.75;2.75;;;;;;;;5142729;27;11390;-73
2022/04/28 02:19:35;;;;;;;;;3.75;2.00;;;;;;;;5142170;27;8940;-72
2022/04/28 02:22:01;;;;;;;;;2.00;2.00;;;;;;;;5141394;27;11769;-73
2022/04/28 02:24:26;;;;;;;;;5.75;3.00;;;;;;;;5142558;27;12256;-73
2022/04/28 02:26:51;;;;;;;;;2.00;2.00;;;;;;;;5143257;27;11611;-74
2022/04/28 02:29:16;;;;;;;;;2.25;2.25;;;;;;;;5142684;27;10266;-73
2022/04/28 02:31:42;;;;;;;;;2.75;2.75;;;;;;;;5142436;27;8798;-73
2022/04/28 02:34:07;;;;;;;;;5.00;3.00;;;;;;;;5141292;27;9630;-73
2022/04/28 02:36:32;;;;;;;;;3.25;2.00;;;;;;;;5142552;27;11336;-73
2022/04/28 02:38:58;;;;;;;;;2.75;1.00;;;;;;;;5142193;27;10452;-73
2022/04/28 02:41:23;;;;;;;;;2.00;2.00;;;;;;;;5142127;27;10095;-73
2022/04/28 02:43:49;;;;;;;;;5.25;2.75;;;;;;;;5142101;27;9794;-73
2022/04/28 02:46:14;;;;;;;;;2.75;2.00;;;;;;;;5141368;27;11610;-73
2022/04/28 02:48:40;;;;;;;;;2.50;2.00;;;;;;;;5141483;27;12245;-73
2022/04/28 02:51:06;;;;;;;;;2.75;2.75;;;;;;;;5142412;27;8910;-73
2022/04/28 02:53:31;;;;;;;;;2.00;2.00;;;;;;;;5142223;27;8978;-73
2022/04/28 02:55:56;;;;;;;;;2.00;2.00;;;;;;;;5142412;27;9636;-73
2022/04/28 02:58:22;;;;;;;;;5.50;3.00;;;;;;;;5141778;27;8945;-73
2022/04/28 03:00:47;;;;;;;;;2.00;2.00;;;;;;;;5141825;27;11915;-73
2022/04/28 03:03:12;;;;;;;;;2.25;2.00;;;;;;;;5141387;27;10480;-73
2022/04/28 03:10:46;;;;;;;;;2.75;0.50;;;;;;;;5140102;27;8831;-73
2022/04/28 03:11:07;;;;;;;;;3.50;3.50;;;;;;;;5141794;27;11398;-73
2022/04/28 03:13:32;;;;;;;;;1.75;1.75;;;;;;;;5141408;27;11502;-73
2022/04/28 03:15:58;;;;;;;;;2.00;2.00;;;;;;;;5141336;27;11832;-73
2022/04/28 03:18:24;;;;;;;;;2.25;2.00;;;;;;;;5141387;27;11297;-72
2022/04/28 03:20:49;;;;;;;;;2.75;2.00;;;;;;;;5140831;27;8798;-73
2022/04/28 03:23:14;;;;;;;;;5.00;3.00;;;;;;;;5140972;27;8803;-73
2022/04/28 03:25:40;;;;;;;;;2.00;2.00;;;;;;;;5142018;27;10661;-73
2022/04/28 03:28:05;;;;;;;;;4.50;1.00;;;;;;;;5141845;27;8958;-73
2022/04/28 03:30:31;;;;;;;;;2.50;2.00;;;;;;;;5141836;27;10346;-73
2022/04/28 03:32:56;;;;;;;;;2.00;1.00;;;;;;;;5141450;27;8920;-74
2022/04/28 03:35:21;;;;;;;;;2.00;2.00;;;;;;;;5141677;27;9629;-74
2022/04/28 03:37:47;;;;;;;;;2.00;2.00;;;;;;;;5140152;27;9263;-72
2022/04/28 03:40:14;;;;;;;;;1.75;1.75;;;;;;;;5141599;27;8795;-73
2022/04/28 03:42:39;;;;;;;;;3.00;2.00;;;;;;;;5141274;27;11357;-73
2022/04/28 03:45:04;;;;;;;;;3.00;3.00;;;;;;;;5141650;27;11517;-73
2022/04/28 03:47:33;;;;;;;;;1.75;1.75;;;;;;;;5141670;27;8784;-72
2022/04/28 03:49:58;;;;;;;;;4.25;4.25;;;;;;;;5140843;27;12833;-73
2022/04/28 03:52:24;;;;;;;;;2.00;2.00;;;;;;;;5140729;27;11438;-73
2022/04/28 03:54:49;;;;;;;;;4.00;2.00;;;;;;;;5139783;27;13318;-73
2022/04/28 03:57:14;;;;;;;;;6.00;6.00;;;;;;;;5140051;27;8796;-74
2022/04/28 03:59:40;;;;;;;;;2.00;2.00;;;;;;;;5139504;27;10669;-73
2022/04/28 04:02:05;;;;;;;;;2.00;2.00;;;;;;;;5140788;27;8919;-73
2022/04/28 04:04:30;;;;;;;;;8.00;5.75;;;;;;;;5141089;27;8781;-74
2022/04/28 04:06:56;;;;;;;;;3.00;3.00;;;;;;;;5141113;27;11516;-73
2022/04/28 04:09:21;;;;;;;;;2.00;2.00;;;;;;;;5141090;27;11280;-70
2022/04/28 04:11:46;;;;;;;;;5.00;2.00;;;;;;;;5141115;27;8879;-70
2022/04/28 04:14:11;;;;;;;;;4.00;4.00;;;;;;;;5141318;27;8898;-70
2022/04/28 04:16:37;;;;;;;;;2.00;2.00;;;;;;;;5141476;27;8854;-71
2022/04/28 04:19:02;;;;;;;;;2.50;2.00;;;;;;;;5139208;27;8908;-71
2022/04/28 04:21:27;;;;;;;;;6.00;5.00;;;;;;;;5139030;27;8827;-72
2022/04/28 04:23:53;;;;;;;;;3.00;3.00;;;;;;;;5140493;27;11439;-70
2022/04/28 04:26:18;;;;;;;;;4.50;4.50;;;;;;;;5140994;27;8817;-71
2022/04/28 04:28:43;;;;;;;;;1.00;1.00;;;;;;;;5141105;27;11316;-72
2022/04/28 04:33:52;;;;;;;;;1.00;1.00;;;;;;;;5140459;27;8784;-70
2022/04/28 04:36:18;;;;;;;;;4.00;4.00;;;;;;;;5138689;27;11699;-71
2022/04/28 04:38:43;;;;;;;;;5.00;2.50;;;;;;;;5140676;27;8772;-70
2022/04/28 04:41:11;;;;;;;;;5.00;4.50;;;;;;;;5140011;27;11317;-71
2022/04/28 04:43:39;;;;;;;;;4.00;4.00;;;;;;;;5140491;27;8796;-71
2022/04/28 04:46:04;;;;;;;;;3.50;2.00;;;;;;;;5138329;27;11565;-71
2022/04/28 04:48:31;;;;;;;;;2.50;2.00;;;;;;;;5127706;27;12262;-71
2022/04/28 04:50:57;;;;;;;;;1.00;1.00;;;;;;;;5126908;27;9530;-73
2022/04/28 04:53:22;;;;;;;;;3.50;3.50;;;;;;;;5127594;27;11450;-74
2022/04/28 04:55:47;;;;;;;;;4.75;4.00;;;;;;;;5121155;27;11807;-72
2022/04/28 04:58:13;;;;;;;;;4.50;4.00;;;;;;;;5106812;27;11325;-71
2022/04/28 05:00:38;;;;;;;;;4.00;4.00;;;;;;;;5108425;27;8890;-72
2022/04/28 05:03:03;;;;;;;;;5.00;5.00;;;;;;;;5096719;28;8951;-69
2022/04/28 05:05:28;;;;;;;;;1.50;1.50;;;;;;;;5114288;28;8898;-71
2022/04/28 05:07:54;;;;;;;;;4.00;4.00;;;;;;;;5112602;28;11517;-69
2022/04/28 05:10:19;;;;;;;;;6.50;6.00;;;;;;;;5098817;28;11459;-71
2022/04/28 05:12:45;;;;;;;;;5.00;2.00;;;;;;;;5099833;28;10259;-70
2022/04/28 05:15:11;;;;;;;;;6.00;4.00;;;;;;;;5099798;28;11029;-71
2022/04/28 05:17:36;;;;;;;;;5.25;4.25;;;;;;;;5099848;28;12144;-72
2022/04/28 05:20:02;;;;;;;;;4.75;3.50;;;;;;;;5099258;28;11488;-71
2022/04/28 05:22:27;;;;;;;;;9.50;4.00;;;;;;;;5097806;28;11703;-72
2022/04/28 05:24:52;;;;;;;;;5.75;5.75;;;;;;;;5100871;28;11564;-71
2022/04/28 05:27:18;;;;;;;;;5.00;5.00;;;;;;;;5102357;28;11456;-71
2022/04/28 05:29:43;;;;;;;;;7.00;4.50;;;;;;;;5102729;28;8857;-72
2022/04/28 05:32:08;;;;;;;;;4.50;4.50;;;;;;;;5102529;28;12112;-71
2022/04/28 05:34:34;;;;;;;;;8.00;6.00;;;;;;;;5102579;28;8796;-70
2022/04/28 05:36:59;;;;;;;;;7.00;7.00;;;;;;;;5102193;28;11373;-71
2022/04/28 05:39:25;;;;;;;;;6.50;5.75;;;;;;;;5102014;28;9627;-72
2022/04/28 05:41:50;;;;;;;;;7.75;7.00;;;;;;;;5119881;28;11676;-72
2022/04/28 05:46:59;;;;;;;;;7.75;5.50;;;;;;;;5122427;28;11345;-71
2022/04/28 05:49:25;;;;;;;;;4.00;4.00;;;;;;;;5121768;27;11530;-73
2022/04/28 05:51:52;;;;;;;;;6.00;6.00;;;;;;;;5120077;28;14476;-76
2022/04/28 05:54:18;;;;;;;;;8.25;7.25;;;;;;;;5122310;27;10291;-76
2022/04/28 05:56:43;;;;;;;;;9.00;7.50;;;;;;;;5104335;27;11558;-72
2022/04/28 05:59:10;;;;;;;;;6.00;6.00;;;;;;;;5100802;28;11531;-72
2022/04/28 06:01:36;;;;;;;;;9.00;8.75;;;;;;;;5099509;28;11361;-73
2022/04/28 06:04:01;;;;;;;;;9.25;7.25;;;;;;;;5099428;28;11633;-72
2022/04/28 06:06:26;;;;;;;;;6.50;6.00;;;;;;;;5101846;28;9520;-80
2022/04/28 06:08:52;;;;;;;;;7.50;7.50;;;;;;;;5110263;28;13935;-72
2022/04/28 06:11:17;;;;;;;;;7.00;5.50;;;;;;;;5122075;28;12968;-71
2022/04/28 06:13:43;;;;;;;;;12.75;9.75;;;;;;;;5117678;27;9447;-71
2022/04/28 06:16:09;;;;;;;;;8.00;8.00;;;;;;;;5101217;28;21641;-71
2022/04/28 06:18:34;;;;;;;;;4.00;4.00;;;;;;;;5108281;27;21528;-72
2022/04/28 06:20:59;;;;;;;;;6.50;4.00;;;;;;;;5102277;28;9927;-71
2022/04/28 06:23:25;;;;;;;;;19.25;19.00;;;;;;;;5106695;28;8926;-71
2022/04/28 06:25:50;;;;;;;;;8.25;7.00;;;;;;;;5102405;28;22309;-71
2022/04/28 06:28:15;;;;;;;;;7.00;7.00;;;;;;;;5101740;28;22499;-72
2022/04/28 06:30:40;;;;;;;;;6.25;6.25;;;;;;;;5102548;28;8857;-70
2022/04/28 06:33:08;;;;;;;;;8.75;7.00;;;;;;;;5101695;28;11305;-71
2022/04/28 06:35:33;;;;;;;;;6.50;6.00;;;;;;;;5106560;28;11352;-69
2022/04/28 06:38:00;;;;;;;;;7.00;7.00;;;;;;;;5118279;27;11542;-69
2022/04/28 06:40:25;;;;;;;;;8.50;7.00;;;;;;;;5113323;28;10492;-69
2022/04/28 06:42:52;;;;;;;;;9.00;8.00;;;;;;;;5111955;28;11592;-69
2022/04/28 06:45:17;;;;;;;;;7.00;7.00;;;;;;;;5111430;27;10990;-69
2022/04/28 06:47:43;;;;;;;;;8.25;8.00;;;;;;;;5109940;28;11448;-68
2022/04/28 06:50:09;;;;;;;;;7.00;6.00;;;;;;;;5110006;27;10458;-68
2022/04/28 06:52:35;;;;;;;;;1.00;0.00;;;;;;;;5110484;28;10287;-69
2022/04/28 06:55:00;;;;;;;;;7.00;7.00;;;;;;;;5109810;28;9242;-68
2022/04/28 06:57:25;;;;;;;;;5.25;5.25;;;;;;;;5111237;28;11497;-68
2022/04/28 06:59:51;;;;;;;;;7.00;6.00;;;;;;;;5111153;28;12457;-68
2022/04/28 07:02:17;;;;;;;;;4.00;4.00;;;;;;;;5110575;28;11453;-70
2022/04/28 07:04:42;;;;;;;;;6.75;4.50;;;;;;;;5109104;27;8801;-69
2022/04/28 07:07:08;;;;;;;;;4.00;4.00;;;;;;;;5100758;28;11623;-70
2022/04/28 07:09:33;;;;;;;;;3.75;3.75;;;;;;;;5100902;28;11304;-69
2022/04/28 07:11:58;;;;;;;;;2.75;2.00;;;;;;;;5100979;28;11369;-69
2022/04/28 07:14:23;;;;;;;;;3.00;3.00;;;;;;;;5109696;28;11539;-69
2022/04/28 07:16:49;;;;;;;;;3.50;3.50;;;;;;;;5110989;27;10502;-69
2022/04/28 07:19:14;;;;;;;;;3.00;3.00;;;;;;;;5111200;28;8790;-68
2022/04/28 07:21:39;;;;;;;;;2.00;2.00;;;;;;;;5108039;28;8837;-69
2022/04/28 07:24:05;;;;;;;;;3.75;3.00;;;;;;;;5111017;27;8926;-68
2022/04/28 07:26:30;;;;;;;;;2.25;2.25;;;;;;;;5110047;28;10253;-69
2022/04/28 07:28:55;;;;;;;;;3.50;3.00;;;;;;;;5108682;27;11302;-68
2022/04/28 07:31:21;;;;;;;;;4.50;4.50;;;;;;;;5108962;28;12029;-69
2022/04/28 07:33:46;;;;;;;;;5.00;4.00;;;;;;;;5109024;28;11382;-70
2022/04/28 07:36:12;;;;;;;;;3.00;3.00;;;;;;;;5109863;27;11306;-68
2022/04/28 07:38:38;;;;;;;;;4.00;4.00;;;;;;;;5110949;28;9121;-69
2022/04/28 07:41:03;;;;;;;;;3.00;3.00;;;;;;;;5109213;28;11544;-70
2022/04/28 07:43:28;;;;;;;;;4.00;3.75;;;;;;;;5108890;27;9225;-69
2022/04/28 07:45:54;;;;;;;;;4.75;4.00;;;;;;;;5109292;27;11298;-69
2022/04/28 07:48:19;;;;;;;;;3.00;3.00;;;;;;;;5108781;28;10437;-69
2022/04/28 07:50:46;;;;;;;;;4.00;2.50;;;;;;;;5110272;27;10456;-69
2022/04/28 07:53:12;;;;;;;;;4.75;4.00;;;;;;;;5111217;27;11578;-69
2022/04/28 07:55:37;;;;;;;;;3.00;3.00;;;;;;;;5109575;28;10485;-69
2022/04/28 07:58:02;;;;;;;;;4.00;4.00;;;;;;;;5109931;27;10322;-68
2022/04/28 08:00:27;;;;;;;;;5.00;4.00;;;;;;;;5110936;28;8830;-69
2022/04/28 08:02:53;;;;;;;;;4.50;3.50;;;;;;;;5108885;28;8954;-69
2022/04/28 08:05:18;;;;;;;;;3.00;3.00;;;;;;;;5110022;27;12685;-68
2022/04/28 08:07:44;;;;;;;;;4.00;4.00;;;;;;;;5116201;28;11283;-69
2022/04/28 08:10:10;;;;;;;;;4.00;4.00;;;;;;;;5109433;27;8971;-68
2022/04/28 08:12:35;;;;;;;;;4.33;4.33;;;;;;;;5106954;28;9112;-69
2022/04/28 08:15:00;;;;;;;;;4.33;4.33;;;;;;;;5109703;28;8916;-69
2022/04/28 08:17:26;;;;;;;;;4.00;3.00;;;;;;;;5109048;27;9656;-69
2022/04/28 08:19:52;;;;;;;;;4.00;3.00;;;;;;;;5108242;28;12776;-69
2022/04/28 08:22:17;;;;;;;;;5.33;4.00;;;;;;;;5109397;27;8815;-70
2022/04/28 08:24:42;;;;;;;;;4.33;4.33;;;;;;;;5110600;28;10318;-69
2022/04/28 08:27:08;;;;;;;;;4.33;3.33;;;;;;;;5108509;27;11595;-69
2022/04/28 08:29:33;;;;;;;;;4.00;4.00;;;;;;;;5108324;28;8834;-68
2022/04/28 08:31:58;;;;;;;;;5.00;5.00;;;;;;;;5111772;28;10349;-70
2022/04/28 08:34:24;;;;;;;;;3.33;3.33;;;;;;;;5118127;27;8814;-69
2022/04/28 08:36:50;;;;;;;;;5.00;4.00;;;;;;;;5114689;27;11824;-68
2022/04/28 08:39:16;;;;;;;;;1.50;1.50;;;;;;;;5107800;27;11375;-69
2022/04/28 08:41:45;;;;;;;;;4.00;3.00;;;;;;;;5110953;28;12679;-69
2022/04/28 08:44:14;;;;;;;;;4.25;4.00;;;;;;;;5108677;28;11609;-69
2022/04/28 08:46:51;;;;;;;;;3.75;3.75;;;;;;;;5108015;27;9621;-69
2022/04/28 08:49:27;;;;;;;;;3.00;3.00;;;;;;;;5108542;27;12549;-69
2022/04/28 08:51:53;;;;;;;;;3.50;3.50;;;;;;;;5109609;28;8781;-69
2022/04/28 08:54:19;;;;;;;;;3.25;3.25;;;;;;;;5108230;28;8805;-70
2022/04/28 08:56:44;;;;;;;;;4.00;4.00;;;;;;;;5109725;27;8867;-69
2022/04/28 08:59:10;;;;;;;;;6.00;6.00;;;;;;;;5108036;28;11318;-68
2022/04/28 09:01:35;;;;;;;;;3.00;3.00;;;;;;;;5108984;27;8817;-68
2022/04/28 09:04:02;;;;;;;;;5.00;4.00;;;;;;;;5108464;28;10576;-68
2022/04/28 09:06:29;;;;;;;;;4.00;4.00;;;;;;;;5108642;28;9045;-69
2022/04/28 09:08:55;;;;;;;;;3.75;3.75;;;;;;;;5108258;27;8860;-69
2022/04/28 09:11:22;;;;;;;;;5.00;5.00;;;;;;;;5110004;28;12718;-68
2022/04/28 09:14:09;;;;;;;;;4.00;4.00;;;;;;;;5106149;28;11569;-68
2022/04/28 09:16:40;;;;;;;;;4.00;4.00;;;;;;;;5101547;28;8934;-67
2022/04/28 09:19:05;;;;;;;;;6.25;4.25;;;;;;;;5099337;28;8817;-67
2022/04/28 09:21:34;;;;;;;;;5.00;5.00;;;;;;;;5099318;28;11325;-67
2022/04/28 09:24:00;;;;;;;;;4.00;4.00;;;;;;;;5097819;28;11400;-69
2022/04/28 09:26:25;;;;;;;;;4.00;4.00;;;;;;;;5099265;28;8956;-68
2022/04/28 09:28:54;;;;;;;;;3.67;3.00;;;;;;;;5099415;28;8809;-67
2022/04/28 09:31:20;;;;;;;;;4.25;4.25;;;;;;;;5109873;27;11809;-67
2022/04/28 09:33:47;;;;;;;;;4.00;4.00;;;;;;;;5108462;28;11394;-67
2022/04/28 09:36:12;;;;;;;;;3.00;3.00;;;;;;;;5106916;28;8769;-67
2022/04/28 09:38:38;;;;;;;;;4.00;4.00;;;;;;;;5107143;27;9539;-67
2022/04/28 09:43:52;;;;;;;;;3.50;3.50;;;;;;;;5104536;28;8789;-67
2022/04/28 09:46:20;;;;;;;;;4.25;4.25;;;;;;;;5108306;27;11900;-67
2022/04/28 09:48:45;;;;;;;;;5.00;4.00;;;;;;;;5109165;28;11423;-67
2022/04/28 09:51:13;;;;;;;;;4.00;4.00;;;;;;;;5104753;27;11294;-67
2022/04/28 09:53:39;;;;;;;;;6.00;5.00;;;;;;;;5107256;28;8801;-67
2022/04/28 09:56:05;;;;;;;;;6.00;5.00;;;;;;;;5108851;27;8864;-67
2022/04/28 09:58:31;;;;;;;;;4.00;4.00;;;;;;;;5109598;28;8827;-67
2022/04/28 10:01:01;;;;;;;;;5.00;5.00;;;;;;;;5107563;28;10180;-67
2022/04/28 10:03:33;;;;;;;;;6.25;5.75;;;;;;;;5108354;27;8964;-67
2022/04/28 10:05:59;;;;;;;;;4.00;4.00;;;;;;;;5105855;27;11918;-67
2022/04/28 10:08:25;;;;;;;;;4.00;4.00;;;;;;;;5107293;27;11607;-67
2022/04/28 10:10:52;;;;;;;;;4.75;4.75;;;;;;;;5110839;28;8793;-67
2022/04/28 10:13:17;;;;;;;;;3.75;3.75;;;;;;;;5110191;27;8809;-67
2022/04/28 10:15:43;;;;;;;;;6.00;5.00;;;;;;;;5112301;27;8833;-67
2022/04/28 10:18:09;;;;;;;;;3.33;3.33;;;;;;;;5108699;28;11320;-67
2022/04/28 10:20:37;;;;;;;;;3.00;3.00;;;;;;;;5111048;27;11399;-67
2022/04/28 10:23:05;;;;;;;;;5.00;5.00;;;;;;;;5110587;28;8829;-68
2022/04/28 10:34:12;;;;;;;;;3.75;3.75;;;;;;;;5117124;28;10310;-67
2022/04/28 10:36:51;;;;;;;;;3.00;3.00;;;;;;;;5108714;28;11450;-68
2022/04/28 10:39:31;;;;;;;;;6.00;4.33;;;;;;;;5109871;27;8932;-67
2022/04/28 10:41:56;;;;;;;;;4.00;4.00;;;;;;;;5109685;28;11589;-67
2022/04/28 10:44:28;;;;;;;;;5.00;5.00;;;;;;;;5101516;28;11331;-67
2022/04/28 10:47:01;;;;;;;;;4.00;4.00;;;;;;;;5101106;28;8815;-67
2022/04/28 10:49:35;;;;;;;;;4.33;4.33;;;;;;;;5101638;28;9235;-68
2022/04/28 10:52:01;;;;;;;;;3.33;3.33;;;;;;;;5115034;28;10123;-67
2022/04/28 10:54:29;;;;;;;;;6.00;6.00;;;;;;;;5121970;27;9119;-68
2022/04/28 10:56:54;;;;;;;;;4.67;4.67;;;;;;;;5121347;27;12890;-68
2022/04/28 10:59:29;;;;;;;;;3.00;3.00;;;;;;;;5119040;28;11645;-68
2022/04/28 11:02:17;;;;;;;;;8.00;6.33;;;;;;;;5121436;27;12174;-68
2022/04/28 11:04:44;;;;;;;;;5.75;5.75;;;;;;;;5121262;28;11392;-67
2022/04/28 11:07:11;;;;;;;;;4.67;4.67;;;;;;;;5109641;27;10421;-68
2022/04/28 11:09:50;;;;;;;;;5.33;4.00;;;;;;;;5114582;28;11874;-67
2022/04/28 11:12:18;;;;;;;;;6.00;5.00;;;;;;;;5121673;27;11391;-66
2022/04/28 11:14:43;;;;;;;;;5.00;5.00;;;;;;;;5121017;27;10411;-67
2022/04/28 11:17:09;;;;;;;;;5.67;5.67;;;;;;;;5122362;27;9354;-66
2022/04/28 11:19:36;;;;;;;;;5.67;3.00;;;;;;;;5121889;27;9104;-66
2022/04/28 11:22:01;;;;;;;;;5.33;4.33;;;;;;;;5121490;27;9478;-67
2022/04/28 11:24:28;;;;;;;;;4.00;4.00;;;;;;;;5108327;27;10287;-67
2022/04/28 11:26:55;;;;;;;;;4.50;4.50;;;;;;;;5121453;27;11558;-67
2022/04/28 11:29:22;;;;;;;;;5.75;5.25;;;;;;;;5120172;28;9618;-67
2022/04/28 11:31:49;;;;;;;;;5.00;3.67;;;;;;;;5120677;27;11621;-67
2022/04/28 11:34:14;;;;;;;;;4.25;3.25;;;;;;;;5115494;27;10385;-67
2022/04/28 11:36:41;;;;;;;;;5.00;5.00;;;;;;;;5111838;27;11561;-66
2022/04/28 11:39:08;;;;;;;;;5.25;4.00;;;;;;;;5108741;28;11964;-67
2022/04/28 11:41:34;;;;;;;;;3.50;3.50;;;;;;;;5110717;28;9709;-67
2022/04/28 11:44:07;;;;;;;;;3.25;3.25;;;;;;;;5114246;28;11381;-67
2022/04/28 11:46:42;;;;;;;;;5.25;5.00;;;;;;;;5103091;28;9325;-67
2022/04/28 11:49:07;;;;;;;;;7.00;5.00;;;;;;;;5108517;28;11546;-67
2022/04/28 11:51:33;;;;;;;;;4.50;4.50;;;;;;;;5109171;28;10008;-67
2022/04/28 11:54:00;;;;;;;;;5.50;4.50;;;;;;;;5111090;27;11817;-68
2022/04/28 11:56:29;;;;;;;;;4.00;3.75;;;;;;;;5111269;28;9566;-67
2022/04/28 11:58:55;;;;;;;;;4.00;4.00;;;;;;;;5111071;28;12023;-67
2022/04/28 12:01:20;;;;;;;;;4.75;4.75;;;;;;;;5109309;27;9633;-67
2022/04/28 12:03:50;;;;;;;;;3.75;3.75;;;;;;;;5111062;27;8907;-67
2022/04/28 12:06:16;;;;;;;;;4.50;4.50;;;;;;;;5109474;27;9119;-67
2022/04/28 12:08:46;;;;;;;;;5.00;4.00;;;;;;;;5109230;28;11646;-67
2022/04/28 12:19:25;;;;;;;;;3.50;3.50;;;;;;;;5108315;28;9948;-67
2022/04/28 12:21:50;;;;;;;;;4.75;3.75;;;;;;;;5110038;28;11637;-67
2022/04/28 12:24:18;;;;;;;;;4.00;4.00;;;;;;;;5107922;27;11989;-67
2022/04/28 12:26:44;;;;;;;;;5.50;4.25;;;;;;;;5108833;27;10357;-67
2022/04/28 12:29:12;;;;;;;;;5.75;5.00;;;;;;;;5109179;28;11515;-67
2022/04/28 12:31:37;;;;;;;;;6.00;6.00;;;;;;;;5106993;27;10451;-68
2022/04/28 12:34:13;;;;;;;;;4.50;4.50;;;;;;;;5106556;27;10323;-67
2022/04/28 12:36:48;;;;;;;;;4.00;4.00;;;;;;;;5107448;27;11476;-67
2022/04/28 12:39:16;;;;;;;;;4.00;4.00;;;;;;;;5107612;27;10021;-69
2022/04/28 12:41:43;;;;;;;;;4.00;4.00;;;;;;;;5107774;28;10008;-69
2022/04/28 12:44:08;;;;;;;;;3.75;3.75;;;;;;;;5108814;27;9917;-67
2022/04/28 12:46:35;;;;;;;;;5.00;5.00;;;;;;;;5109326;28;11322;-69
2022/04/28 12:49:03;;;;;;;;;6.00;6.00;;;;;;;;5105830;28;12118;-67
2022/04/28 12:51:29;;;;;;;;;4.00;4.00;;;;;;;;5109804;27;9990;-67
2022/04/28 12:54:11;;;;;;;;;6.00;6.00;;;;;;;;5107270;27;10104;-67
2022/04/28 12:56:37;;;;;;;;;4.00;4.00;;;;;;;;5108785;28;9508;-67
2022/04/28 12:59:09;;;;;;;;;6.00;5.00;;;;;;;;5107938;28;9886;-66
2022/04/28 13:01:36;;;;;;;;;5.00;5.00;;;;;;;;5106650;27;9891;-67
2022/04/28 13:04:06;;;;;;;;;5.75;4.50;;;;;;;;5107765;27;9948;-66
2022/04/28 13:06:32;;;;;;;;;5.00;5.00;;;;;;;;5107958;28;11186;-66
2022/04/28 13:08:59;;;;;;;;;5.50;4.50;;;;;;;;5107183;27;10656;-66
2022/04/28 13:11:26;;;;;;;;;4.50;4.00;;;;;;;;5107843;27;10705;-68
2022/04/28 13:13:52;;;;;;;;;4.00;4.00;;;;;;;;5117394;28;12674;-67
2022/04/28 13:16:18;;;;;;;;;5.75;5.75;;;;;;;;5119575;27;9718;-67
2022/04/28 13:18:43;;;;;;;;;6.00;5.50;;;;;;;;5119480;27;11701;-67
2022/04/28 13:21:10;;;;;;;;;7.00;5.00;;;;;;;;5103521;27;11543;-69
2022/04/28 13:23:35;;;;;;;;;4.25;4.00;;;;;;;;5118943;27;11663;-68
2022/04/28 13:26:01;;;;;;;;;6.00;6.00;;;;;;;;5116461;28;12666;-68
2022/04/28 13:28:26;;;;;;;;;6.50;5.00;;;;;;;;5119492;27;10486;-67
2022/04/28 13:30:53;;;;;;;;;6.00;5.00;;;;;;;;5119945;27;9511;-67
2022/04/28 13:33:19;;;;;;;;;4.50;4.50;;;;;;;;5119877;27;8811;-67
2022/04/28 13:35:46;;;;;;;;;4.00;4.00;;;;;;;;5120118;27;11562;-67
2022/04/28 13:38:11;;;;;;;;;5.00;4.25;;;;;;;;5119185;27;9999;-66
2022/04/28 13:40:36;;;;;;;;;2.75;2.75;;;;;;;;5119193;27;11538;-67
2022/04/28 13:43:02;;;;;;;;;2.75;2.75;;;;;;;;5119210;27;10459;-67
